createdAt,value
2022-09-02T00:01:58.298Z,97454.12
2022-09-02T00:04:26.914Z,97454.16
2022-09-02T00:06:55.995Z,97455.38
2022-09-02T00:09:25.739Z,97452.64
2022-09-02T00:11:54.660Z,97453.24
2022-09-02T00:14:34.002Z,97453.67
2022-09-02T00:17:02.873Z,97453.67
2022-09-02T00:19:31.135Z,97448.14
2022-09-02T00:22:01.605Z,97451.27
2022-09-02T00:24:30.107Z,97446.53
2022-09-02T00:26:58.008Z,97448.64
2022-09-02T00:29:27.428Z,97446.64
2022-09-02T00:31:55.674Z,97445.80
2022-09-02T00:34:24.462Z,97450.45
2022-09-02T00:36:52.495Z,97450.58
2022-09-02T00:39:20.655Z,97447.77
2022-09-02T00:41:48.663Z,97445.84
2022-09-02T00:44:19.278Z,97447.46
2022-09-02T00:46:47.349Z,97450.25
2022-09-02T00:49:36.005Z,97452.66
2022-09-02T00:52:24.421Z,97455.23
2022-09-02T00:55:12.016Z,97449.38
2022-09-02T00:57:51.006Z,97454.95
2022-09-02T01:00:24.188Z,97452.64
2022-09-02T01:02:57.309Z,97452.10
2022-09-02T01:05:29.272Z,97441.93
2022-09-02T01:07:58.559Z,97446.83
2022-09-02T01:10:33.944Z,97453.47
2022-09-02T01:13:09.420Z,97456.21
2022-09-02T01:15:45.548Z,97454.41
2022-09-02T01:18:18.518Z,97460.23
2022-09-02T01:20:46.989Z,97467.19
2022-09-02T01:23:16.872Z,97464.78
2022-09-02T01:25:46.538Z,97465.52
2022-09-02T01:28:18.061Z,97466.05
2022-09-02T01:30:51.138Z,97468.89
2022-09-02T01:33:21.341Z,97464.53
2022-09-02T01:35:51.353Z,97469.75
2022-09-02T01:38:20.885Z,97470.81
2022-09-02T01:40:48.666Z,97476.38
2022-09-02T01:43:23.867Z,97477.11
2022-09-02T01:45:54.943Z,97479.00
2022-09-02T01:48:23.962Z,97472.34
2022-09-02T01:50:57.720Z,97474.70
2022-09-02T01:53:26.911Z,97476.70
2022-09-02T01:55:55.014Z,97478.18
2022-09-02T01:58:23.095Z,97477.22
2022-09-02T02:00:52.126Z,97478.49
2022-09-02T02:03:21.046Z,97477.33
2022-09-02T02:05:49.461Z,97477.13
2022-09-02T02:08:18.032Z,97477.13
2022-09-02T02:10:46.938Z,97474.91
2022-09-02T02:13:14.800Z,97485.43
2022-09-02T02:15:45.603Z,97488.49
2022-09-02T02:18:13.441Z,97486.28
2022-09-02T02:20:53.917Z,97488.18
2022-09-02T02:23:32.997Z,97485.53
2022-09-02T02:26:16.210Z,97478.60
2022-09-02T02:28:51.254Z,97485.80
2022-09-02T02:31:22.463Z,97483.38
2022-09-02T02:33:50.688Z,97486.05
2022-09-02T02:36:41.488Z,97485.79
2022-09-02T02:39:02.646Z,97485.73
2022-09-02T02:41:33.825Z,97475.95
2022-09-02T02:44:02.077Z,97478.89
2022-09-02T02:46:30.767Z,97480.84
2022-09-02T02:49:05.022Z,97479.09
2022-09-02T02:51:34.749Z,97476.21
2022-09-02T02:54:04.116Z,97474.17
2022-09-02T02:56:32.779Z,97477.96
2022-09-02T02:59:02.880Z,97474.91
2022-09-02T03:01:32.705Z,97474.58
2022-09-02T03:04:00.626Z,97475.02
2022-09-02T03:06:29.499Z,97474.96
2022-09-02T03:08:58.063Z,97472.81
2022-09-02T03:11:28.022Z,97473.97
2022-09-02T03:13:57.593Z,97474.91
2022-09-02T03:16:25.840Z,97473.53
2022-09-02T03:18:54.108Z,97470.59
2022-09-02T03:21:21.965Z,97476.80
2022-09-02T03:23:50.436Z,97476.39
2022-09-02T03:26:22.883Z,97477.50
2022-09-02T03:28:53.707Z,97478.37
2022-09-02T03:31:24.043Z,97473.21
2022-09-02T03:33:52.770Z,97483.30
2022-09-02T03:36:32.398Z,97482.25
2022-09-02T03:39:06.579Z,97478.44
2022-09-02T03:41:36.293Z,97486.37
2022-09-02T03:44:04.914Z,97493.00
2022-09-02T03:46:33.448Z,97490.84
2022-09-02T03:49:02.117Z,97491.26
2022-09-02T03:51:31.231Z,97491.91
2022-09-02T03:53:59.581Z,97492.55
2022-09-02T03:56:27.382Z,97495.18
2022-09-02T03:58:56.917Z,97494.11
2022-09-02T04:01:27.486Z,97490.68
2022-09-02T04:03:56.507Z,97485.27
2022-09-02T04:06:26.241Z,97490.80
2022-09-02T04:08:55.702Z,97485.73
2022-09-02T04:11:25.720Z,97494.91
2022-09-02T04:13:54.302Z,97498.22
2022-09-02T04:16:28.171Z,97501.10
2022-09-02T04:19:00.849Z,97510.99
2022-09-02T04:21:32.818Z,97507.61
2022-09-02T04:24:01.229Z,97501.73
2022-09-02T04:26:29.147Z,97503.38
2022-09-02T04:28:57.214Z,97508.38
2022-09-02T04:31:28.337Z,97514.95
2022-09-02T04:33:56.438Z,97514.88
2022-09-02T04:36:24.988Z,97520.49
2022-09-02T04:38:57.291Z,97523.70
2022-09-02T04:41:30.627Z,97524.42
2022-09-02T04:44:00.434Z,97523.40
2022-09-02T04:46:34.906Z,97531.84
2022-09-02T04:48:59.916Z,97531.09
2022-09-02T04:51:28.031Z,97534.91
2022-09-02T04:53:57.595Z,97534.81
2022-09-02T04:56:29.789Z,97539.77
2022-09-02T04:58:58.296Z,97537.69
2022-09-02T05:01:33.501Z,97536.80
2022-09-02T05:04:08.234Z,97535.28
2022-09-02T05:06:43.885Z,97529.95
2022-09-02T05:09:09.339Z,97531.12
2022-09-02T05:11:38.370Z,97529.48
2022-09-02T05:14:07.542Z,97535.88
2022-09-02T05:16:39.977Z,97532.52
2022-09-02T05:19:11.525Z,97528.49
2022-09-02T05:21:46.626Z,97528.70
2022-09-02T05:24:16.291Z,97525.34
2022-09-02T05:26:44.358Z,97528.59
2022-09-02T05:29:13.563Z,97526.00
2022-09-02T05:31:41.559Z,97524.77
2022-09-02T05:34:11.460Z,97534.10
2022-09-02T05:36:39.310Z,97530.38
2022-09-02T05:39:07.269Z,97532.90
2022-09-02T05:41:35.566Z,97537.92
2022-09-02T05:44:06.110Z,97542.47
2022-09-02T05:46:35.440Z,97529.00
2022-09-02T05:49:12.630Z,97538.67
2022-09-02T05:51:52.596Z,97543.62
2022-09-02T05:54:29.698Z,97540.97
2022-09-02T05:57:04.177Z,97536.70
2022-09-02T05:59:34.693Z,97539.94
2022-09-02T06:02:02.773Z,97539.19
2022-09-02T06:04:31.613Z,97537.24
2022-09-02T06:06:59.798Z,97545.58
2022-09-02T06:09:27.720Z,97547.97
2022-09-02T06:11:56.631Z,97546.95
2022-09-02T06:14:26.699Z,97546.30
2022-09-02T06:16:57.789Z,97546.30
2022-09-02T06:19:36.840Z,97553.95
2022-09-02T06:22:06.594Z,97547.77
2022-09-02T06:24:35.163Z,97549.86
2022-09-02T06:27:06.768Z,97554.34
2022-09-02T06:29:34.861Z,97558.16
2022-09-02T06:32:03.164Z,97557.52
2022-09-02T06:34:30.860Z,97567.39
2022-09-02T06:36:58.766Z,97573.09
2022-09-02T06:39:28.311Z,97571.38
2022-09-02T06:41:56.817Z,97571.67
2022-09-02T06:44:25.155Z,97578.02
2022-09-02T06:46:58.675Z,97577.36
2022-09-02T06:49:28.715Z,97585.94
2022-09-02T06:51:59.316Z,97588.22
2022-09-02T06:54:28.869Z,97590.03
2022-09-02T06:56:58.356Z,97592.47
2022-09-02T06:59:26.479Z,97593.91
2022-09-02T07:01:57.660Z,97596.94
2022-09-02T07:04:44.630Z,97598.00
2022-09-02T07:07:14.364Z,97598.66
2022-09-02T07:09:44.047Z,97597.23
2022-09-02T07:12:14.794Z,97603.83
2022-09-02T07:14:45.422Z,97599.52
2022-09-02T07:17:17.792Z,97607.14
2022-09-02T07:19:48.475Z,97603.83
2022-09-02T07:22:18.884Z,97600.55
2022-09-02T07:24:45.942Z,97603.27
2022-09-02T07:27:14.506Z,97600.88
2022-09-02T07:29:44.624Z,97599.23
2022-09-02T07:32:12.554Z,97599.95
2022-09-02T07:34:40.555Z,97604.19
2022-09-02T07:37:10.901Z,97598.30
2022-09-02T07:39:38.490Z,97606.05
2022-09-02T07:42:07.558Z,97600.75
2022-09-02T07:44:36.362Z,97602.45
2022-09-02T07:47:06.477Z,97600.09
2022-09-02T07:52:05.163Z,97606.14
2022-09-02T07:54:34.415Z,97610.31
2022-09-02T07:57:03.087Z,97610.60
2022-09-02T07:59:31.518Z,97605.20
2022-09-02T08:02:00.356Z,97608.88
2022-09-02T08:04:28.224Z,97605.42
2022-09-02T08:06:56.195Z,97607.66
2022-09-02T08:09:23.915Z,97606.73
2022-09-02T08:11:53.013Z,97604.20
2022-09-02T08:14:28.281Z,97604.00
2022-09-02T08:16:57.786Z,97602.19
2022-09-02T08:19:26.912Z,97603.34
2022-09-02T08:21:54.993Z,97603.14
2022-09-02T08:24:22.581Z,97601.67
2022-09-02T08:26:50.217Z,97606.35
2022-09-02T08:29:17.657Z,97611.38
2022-09-02T08:31:46.322Z,97601.19
2022-09-02T08:34:14.967Z,97603.67
2022-09-02T08:36:52.552Z,97599.81
2022-09-02T08:39:12.757Z,97603.17
2022-09-02T08:41:51.645Z,97595.86
2022-09-02T08:44:22.936Z,97601.98
2022-09-02T08:46:54.401Z,97601.34
2022-09-02T08:49:30.773Z,97604.77
2022-09-02T08:52:01.417Z,97595.13
2022-09-02T08:54:42.893Z,97596.62
2022-09-02T08:57:11.385Z,97595.37
2022-09-02T09:02:53.846Z,97597.59
2022-09-02T09:05:50.513Z,97600.12
2022-09-02T09:08:43.719Z,97605.32
2022-09-02T09:11:25.565Z,97605.05
2022-09-02T09:14:22.617Z,97602.61
2022-09-02T09:16:59.943Z,97598.78
2022-09-02T09:19:51.540Z,97598.74
2022-09-02T09:22:22.360Z,97601.61
2022-09-02T09:24:50.792Z,97604.66
2022-09-02T09:27:22.146Z,97606.29
2022-09-02T09:29:51.873Z,97598.59
2022-09-02T09:32:27.195Z,97596.09
2022-09-02T09:35:01.976Z,97601.77
2022-09-02T09:37:42.620Z,97596.17
2022-09-02T09:40:25.068Z,97595.66
2022-09-02T09:43:14.840Z,97603.19
2022-09-02T09:45:47.469Z,97606.44
2022-09-02T09:48:29.895Z,97598.92
2022-09-02T09:51:03.529Z,97602.00
2022-09-02T09:53:34.468Z,97602.34
2022-09-02T09:56:15.412Z,97596.35
2022-09-02T09:58:46.985Z,97595.42
2022-09-02T10:01:31.624Z,97592.69
2022-09-02T10:04:42.209Z,97596.35
2022-09-02T10:06:43.431Z,97592.56
2022-09-02T10:09:19.545Z,97589.17
2022-09-02T10:12:01.068Z,97591.50
2022-09-02T10:14:47.396Z,97593.01
2022-09-02T10:17:33.766Z,97593.52
2022-09-02T10:20:24.439Z,97592.08
2022-09-02T10:23:15.234Z,97587.70
2022-09-02T10:26:04.811Z,97588.80
2022-09-02T10:29:08.466Z,97594.78
2022-09-02T10:31:53.537Z,97598.23
2022-09-02T10:34:49.644Z,97590.23
2022-09-02T10:37:24.008Z,97585.99
2022-09-02T10:40:13.459Z,97586.78
2022-09-02T10:43:05.518Z,97591.33
2022-09-02T10:45:53.742Z,97593.55
2022-09-02T10:48:54.410Z,97595.27
2022-09-02T10:55:02.788Z,97594.95
2022-09-02T10:57:35.558Z,97593.38
2022-09-02T11:00:19.516Z,97591.57
2022-09-02T11:03:07.713Z,97591.95
2022-09-02T11:05:55.239Z,97588.19
2022-09-02T11:08:43.130Z,97588.28
2022-09-02T11:11:34.723Z,97593.03
2022-09-02T11:14:24.461Z,97594.13
2022-09-02T11:17:20.944Z,97589.75
2022-09-02T11:19:57.828Z,97586.94
2022-09-02T11:22:38.293Z,97584.92
2022-09-02T11:25:17.922Z,97590.73
2022-09-02T11:27:56.672Z,97590.16
2022-09-02T11:30:48.165Z,97586.29
2022-09-02T11:33:29.022Z,97589.47
2022-09-02T11:35:58.967Z,97586.73
2022-09-02T11:38:46.535Z,97577.37
2022-09-02T11:41:49.638Z,97580.75
2022-09-02T11:45:01.241Z,97571.84
2022-09-02T11:47:45.606Z,97571.84
2022-09-02T11:50:33.657Z,97573.20
2022-09-02T11:53:14.345Z,97570.23
2022-09-02T11:55:50.711Z,97567.66
2022-09-02T11:58:49.131Z,97570.98
2022-09-02T12:01:43.712Z,97572.62
2022-09-02T12:07:09.872Z,97560.03
2022-09-02T12:09:50.803Z,97566.00
2022-09-02T12:12:42.045Z,97563.77
2022-09-02T12:15:17.197Z,97562.47
2022-09-02T12:17:53.175Z,97567.31
2022-09-02T12:20:42.741Z,97564.91
2022-09-02T12:23:54.920Z,97560.03
2022-09-02T12:26:38.720Z,97560.48
2022-09-02T12:29:24.156Z,97555.93
2022-09-02T12:31:53.567Z,97548.17
2022-09-02T12:34:28.323Z,97548.59
2022-09-02T12:37:02.050Z,97551.33
2022-09-02T12:39:35.660Z,97551.40
2022-09-02T12:42:12.083Z,97557.45
2022-09-02T12:45:09.236Z,97560.97
2022-09-02T12:48:00.701Z,97552.69
2022-09-02T12:50:55.763Z,97552.98
2022-09-02T12:53:30.711Z,97545.80
2022-09-02T12:56:19.834Z,97549.53
2022-09-02T12:58:57.787Z,97551.77
2022-09-02T13:01:48.004Z,97556.29
2022-09-02T13:04:59.279Z,97548.94
2022-09-02T13:07:49.486Z,97541.16
2022-09-02T13:10:50.097Z,97533.96
2022-09-02T13:13:59.930Z,97542.31
2022-09-02T13:16:48.015Z,97544.47
2022-09-02T13:19:24.129Z,97545.38
2022-09-02T13:22:26.160Z,97538.34
2022-09-02T13:25:26.856Z,97541.36
2022-09-02T13:28:42.326Z,97539.66
2022-09-02T13:31:27.226Z,97534.83
2022-09-02T13:34:05.893Z,97535.15
2022-09-02T13:36:39.960Z,97529.53
2022-09-02T13:39:17.755Z,97521.34
2022-09-02T13:41:46.725Z,97521.78
2022-09-02T13:44:24.929Z,97524.06
2022-09-02T13:47:00.902Z,97519.31
2022-09-02T13:49:37.844Z,97508.34
2022-09-02T13:52:12.562Z,97513.72
2022-09-02T13:54:46.937Z,97517.08
2022-09-02T13:57:19.027Z,97509.52
2022-09-02T13:59:50.447Z,97513.69
2022-09-02T14:02:31.463Z,97515.06
2022-09-02T14:05:22.691Z,97511.46
2022-09-02T14:07:57.707Z,97508.44
2022-09-02T14:10:27.658Z,97506.28
2022-09-02T14:12:59.103Z,97499.67
2022-09-02T14:15:32.078Z,97498.97
2022-09-02T14:18:21.698Z,97492.59
2022-09-02T14:21:18.028Z,97505.30
2022-09-02T14:23:51.520Z,97497.44
2022-09-02T14:26:33.713Z,97496.81
2022-09-02T14:29:02.992Z,97489.48
2022-09-02T14:31:32.463Z,97488.05
2022-09-02T14:34:01.406Z,97487.20
2022-09-02T14:36:36.301Z,97488.98
2022-09-02T14:39:18.534Z,97496.59
2022-09-02T14:41:52.856Z,97490.72
2022-09-02T14:44:35.355Z,97490.52
2022-09-02T14:47:06.575Z,97488.70
2022-09-02T14:49:51.990Z,97489.64
2022-09-02T14:52:24.918Z,97486.84
2022-09-02T14:54:56.130Z,97489.48
2022-09-02T14:57:32.612Z,97491.77
2022-09-02T15:00:09.486Z,97493.87
2022-09-02T15:02:41.209Z,97494.58
2022-09-02T15:05:14.164Z,97490.61
2022-09-02T15:07:41.843Z,97488.12
2022-09-02T15:10:09.936Z,97488.33
2022-09-02T15:12:50.991Z,97493.87
2022-09-02T15:15:18.675Z,97495.31
2022-09-02T15:17:46.388Z,97491.51
2022-09-02T15:20:14.259Z,97490.77
2022-09-02T15:22:42.904Z,97492.80
2022-09-02T15:25:10.954Z,97484.68
2022-09-02T15:27:38.719Z,97490.43
2022-09-02T15:30:08.784Z,97486.98
2022-09-02T15:32:37.813Z,97488.77
2022-09-02T15:35:07.586Z,97482.76
2022-09-02T15:37:39.034Z,97483.81
2022-09-02T15:40:09.346Z,97492.00
2022-09-02T15:42:38.743Z,97485.91
2022-09-02T15:45:08.911Z,97487.00
2022-09-02T15:47:37.634Z,97479.22
2022-09-02T15:50:06.438Z,97483.81
2022-09-02T15:52:35.808Z,97483.73
2022-09-02T15:55:04.591Z,97470.14
2022-09-02T15:57:32.183Z,97474.81
2022-09-02T15:59:59.984Z,97468.66
2022-09-02T16:02:27.699Z,97470.84
2022-09-02T16:04:55.834Z,97467.45
2022-09-02T16:07:23.767Z,97468.66
2022-09-02T16:09:51.526Z,97461.53
2022-09-02T16:12:19.449Z,97460.82
2022-09-02T16:14:48.950Z,97460.74
2022-09-02T16:17:17.039Z,97462.60
2022-09-02T16:19:44.800Z,97457.59
2022-09-02T16:22:12.639Z,97460.03
2022-09-02T16:24:40.675Z,97454.44
2022-09-02T16:27:09.391Z,97455.64
2022-09-02T16:29:38.939Z,97450.63
2022-09-02T16:34:35.978Z,97454.92
2022-09-02T16:37:03.576Z,97467.01
2022-09-02T16:39:31.450Z,97461.09
2022-09-02T16:42:00.963Z,97457.09
2022-09-02T16:44:30.739Z,97463.27
2022-09-02T16:46:59.385Z,97461.19
2022-09-02T16:49:28.491Z,97466.57
2022-09-02T16:51:58.525Z,97465.13
2022-09-02T16:54:30.920Z,97463.89
2022-09-02T16:56:58.244Z,97465.05
2022-09-02T16:59:25.819Z,97464.80
2022-09-02T17:01:53.369Z,97462.08
2022-09-02T17:04:21.138Z,97459.45
2022-09-02T17:06:48.906Z,97460.95
2022-09-02T17:09:16.841Z,97464.80
2022-09-02T17:11:44.669Z,97460.27
2022-09-02T17:14:16.400Z,97465.63
2022-09-02T17:16:48.894Z,97465.13
2022-09-02T17:19:22.990Z,97467.36
2022-09-02T17:21:53.491Z,97466.48
2022-09-02T17:24:24.782Z,97469.50
2022-09-02T17:26:55.202Z,97474.62
2022-09-02T17:31:57.348Z,97478.06
2022-09-02T17:34:25.532Z,97477.41
2022-09-02T17:36:53.174Z,97482.21
2022-09-02T17:39:21.302Z,97482.70
2022-09-02T17:41:54.980Z,97479.11
2022-09-02T17:44:35.477Z,97478.45
2022-09-02T17:47:16.468Z,97484.75
2022-09-02T17:49:45.018Z,97491.48
2022-09-02T17:52:19.129Z,97484.38
2022-09-02T17:54:50.389Z,97488.62
2022-09-02T17:57:43.215Z,97489.74
2022-09-02T18:00:17.450Z,97499.88
2022-09-02T18:03:14.748Z,97499.53
2022-09-02T18:06:07.105Z,97503.05
2022-09-02T18:09:02.776Z,97511.53
2022-09-02T18:11:31.075Z,97514.14
2022-09-02T18:14:29.873Z,97519.66
2022-09-02T18:17:14.493Z,97518.73
2022-09-02T18:20:13.480Z,97522.00
2022-09-02T18:22:58.766Z,97526.46
2022-09-02T18:26:03.510Z,97519.40
2022-09-02T18:29:00.861Z,97521.00
2022-09-02T18:31:53.895Z,97520.68
2022-09-02T18:34:44.830Z,97523.11
2022-09-02T18:37:46.142Z,97533.16
2022-09-02T18:40:54.496Z,97529.19
2022-09-02T18:43:34.437Z,97538.44
2022-09-02T18:46:03.125Z,97531.23
2022-09-02T18:48:36.485Z,97533.08
2022-09-02T18:51:35.117Z,97533.78
2022-09-02T18:54:08.700Z,97525.88
2022-09-02T18:56:38.313Z,97527.81
2022-09-02T18:59:13.678Z,97524.72
2022-09-02T19:01:45.914Z,97528.33
2022-09-02T19:04:15.484Z,97528.20
2022-09-02T19:06:43.047Z,97525.77
2022-09-02T19:09:16.673Z,97534.27
2022-09-02T19:11:44.427Z,97534.47
2022-09-02T19:14:26.189Z,97539.02
2022-09-02T19:16:57.167Z,97534.06
2022-09-02T19:19:27.044Z,97534.73
2022-09-02T19:22:02.278Z,97532.22
2022-09-02T19:24:35.767Z,97538.25
2022-09-02T19:27:08.360Z,97540.55
2022-09-02T19:29:40.788Z,97537.95
2022-09-02T19:32:09.291Z,97534.56
2022-09-02T19:34:40.203Z,97539.59
2022-09-02T19:37:10.094Z,97538.35
2022-09-02T19:39:38.154Z,97541.66
2022-09-02T19:42:06.015Z,97539.20
2022-09-02T19:44:33.584Z,97532.09
2022-09-02T19:49:30.279Z,97527.81
2022-09-02T19:51:57.890Z,97527.23
2022-09-02T19:54:26.049Z,97532.12
2022-09-02T19:56:53.755Z,97534.48
2022-09-02T19:59:21.695Z,97533.57
2022-09-02T20:01:49.747Z,97534.23
2022-09-02T20:04:18.273Z,97539.42
2022-09-02T20:06:46.232Z,97537.78
2022-09-02T20:09:14.057Z,97540.23
2022-09-02T20:11:41.437Z,97543.49
2022-09-02T20:14:09.239Z,97543.80
2022-09-02T20:16:37.182Z,97545.95
2022-09-02T20:19:04.973Z,97547.44
2022-09-02T20:21:38.098Z,97546.44
2022-09-02T20:24:08.024Z,97547.14
2022-09-02T20:30:03.783Z,97547.33
2022-09-02T20:32:59.644Z,97549.97
2022-09-02T20:35:41.409Z,97546.52
2022-09-02T20:38:36.136Z,97545.84
2022-09-02T20:41:33.605Z,97549.94
2022-09-02T20:44:30.598Z,97544.27
2022-09-02T20:47:32.843Z,97545.84
2022-09-02T20:50:29.594Z,97541.09
2022-09-02T20:53:26.787Z,97544.61
2022-09-02T20:55:59.640Z,97548.21
2022-09-02T20:58:49.714Z,97546.73
2022-09-02T21:01:27.607Z,97546.23
2022-09-02T21:04:29.725Z,97552.20
2022-09-02T21:07:14.356Z,97544.90
2022-09-02T21:10:06.208Z,97548.17
2022-09-02T21:13:00.540Z,97544.95
2022-09-02T21:15:32.193Z,97556.44
2022-09-02T21:18:25.111Z,97556.35
2022-09-02T21:21:41.114Z,97554.90
2022-09-02T21:24:20.192Z,97555.97
2022-09-02T21:27:12.783Z,97552.61
2022-09-02T21:29:51.245Z,97556.88
2022-09-02T21:32:42.129Z,97549.45
2022-09-02T21:35:23.482Z,97557.91
2022-09-02T21:38:11.536Z,97561.02
2022-09-02T21:41:00.092Z,97563.08
2022-09-02T21:43:38.762Z,97561.41
2022-09-02T21:46:30.170Z,97561.52
2022-09-02T21:49:13.435Z,97564.50
2022-09-02T21:52:11.089Z,97559.47
2022-09-02T21:54:50.346Z,97558.56
2022-09-02T21:57:52.582Z,97553.05
2022-09-02T22:00:21.770Z,97556.88
2022-09-02T22:03:18.879Z,97550.94
2022-09-02T22:05:51.912Z,97545.67
2022-09-02T22:08:51.079Z,97547.63
2022-09-02T22:11:45.804Z,97556.94
2022-09-02T22:14:28.550Z,97554.64
2022-09-02T22:17:03.889Z,97553.48
2022-09-02T22:19:34.379Z,97551.33
2022-09-02T22:22:18.463Z,97559.30
2022-09-02T22:24:47.537Z,97557.19
2022-09-02T22:27:22.998Z,97568.58
2022-09-02T22:29:56.731Z,97549.42
2022-09-02T22:32:30.294Z,97557.73
2022-09-02T22:35:31.074Z,97560.73
2022-09-02T22:38:08.694Z,97555.52
2022-09-02T22:40:44.716Z,97556.48
2022-09-02T22:43:17.629Z,97559.47
2022-09-02T22:46:21.232Z,97555.16
2022-09-02T22:49:13.013Z,97561.98
2022-09-02T22:52:22.514Z,97569.90
2022-09-02T22:54:51.894Z,97559.20
2022-09-02T22:57:49.955Z,97553.05
2022-09-02T23:00:22.945Z,97552.58
2022-09-02T23:03:01.957Z,97551.12
2022-09-02T23:05:48.704Z,97546.21
2022-09-02T23:08:20.309Z,97549.24
2022-09-02T23:11:11.353Z,97549.81
2022-09-02T23:13:59.085Z,97538.09
2022-09-02T23:16:40.743Z,97544.48
2022-09-02T23:19:25.679Z,97545.18
2022-09-02T23:22:08.927Z,97540.00
2022-09-02T23:24:52.697Z,97539.55
2022-09-02T23:27:39.158Z,97529.27
2022-09-02T23:30:07.725Z,97538.63
2022-09-02T23:32:51.610Z,97535.14
2022-09-02T23:35:47.638Z,97544.73
2022-09-02T23:38:51.195Z,97534.43
2022-09-02T23:41:19.829Z,97536.17
2022-09-02T23:43:49.005Z,97535.08
2022-09-02T23:46:46.331Z,97539.38
2022-09-02T23:49:41.650Z,97538.27
2022-09-02T23:52:33.297Z,97537.54
2022-09-02T23:55:21.753Z,97536.27
2022-09-02T23:58:04.668Z,97537.30
